createdAt,value
2017-07-25T00:00:09.469Z,16.00
2017-07-25T00:02:36.907Z,16.00
2017-07-25T00:05:04.566Z,15.90
2017-07-25T00:07:32.005Z,15.90
2017-07-25T00:09:59.462Z,15.90
2017-07-25T00:12:26.900Z,15.90
2017-07-25T00:14:54.336Z,16.00
2017-07-25T00:17:21.771Z,15.90
2017-07-25T00:19:49.209Z,15.90
2017-07-25T00:22:16.668Z,15.90
2017-07-25T00:24:44.113Z,15.80
2017-07-25T00:27:11.583Z,15.90
2017-07-25T00:29:39.027Z,15.90
2017-07-25T00:32:06.461Z,15.80
2017-07-25T00:34:33.900Z,15.80
2017-07-25T00:37:01.326Z,15.80
2017-07-25T00:39:28.773Z,15.80
2017-07-25T00:41:56.239Z,15.80
2017-07-25T00:44:23.679Z,15.90
2017-07-25T00:46:51.120Z,15.90
2017-07-25T00:49:18.588Z,15.90
2017-07-25T00:51:46.017Z,15.90
2017-07-25T00:54:13.449Z,15.90
2017-07-25T00:56:40.897Z,15.90
2017-07-25T00:59:08.352Z,15.80
2017-07-25T01:01:35.800Z,15.80
2017-07-25T01:04:03.234Z,15.80
2017-07-25T01:06:30.673Z,15.80
2017-07-25T01:08:58.105Z,15.80
2017-07-25T01:11:25.537Z,15.80
2017-07-25T01:13:52.970Z,15.80
2017-07-25T01:16:20.417Z,15.70
2017-07-25T01:18:47.845Z,15.70
2017-07-25T01:21:15.302Z,15.60
2017-07-25T01:23:42.719Z,15.60
2017-07-25T01:26:10.162Z,15.60
2017-07-25T01:28:37.617Z,15.60
2017-07-25T01:31:05.099Z,15.50
2017-07-25T01:33:32.537Z,15.50
2017-07-25T01:35:59.993Z,15.50
2017-07-25T01:38:27.412Z,15.50
2017-07-25T01:40:55.627Z,15.40
2017-07-25T01:43:23.069Z,15.40
2017-07-25T01:45:50.800Z,15.40
2017-07-25T01:48:18.255Z,15.50
2017-07-25T01:50:45.689Z,15.50
2017-07-25T01:53:13.129Z,15.50
2017-07-25T01:55:40.568Z,15.50
2017-07-25T01:58:07.993Z,15.40
2017-07-25T02:00:36.206Z,15.40
2017-07-25T02:03:03.643Z,15.40
2017-07-25T02:05:31.108Z,15.40
2017-07-25T02:07:58.565Z,15.40
2017-07-25T02:10:25.996Z,15.30
2017-07-25T02:12:53.457Z,15.40
2017-07-25T02:15:20.885Z,15.30
2017-07-25T02:17:48.325Z,15.30
2017-07-25T02:20:15.764Z,15.30
2017-07-25T02:22:43.193Z,15.30
2017-07-25T02:25:11.408Z,15.40
2017-07-25T02:27:38.841Z,15.30
2017-07-25T02:30:06.284Z,15.40
2017-07-25T02:32:33.712Z,15.30
2017-07-25T02:35:01.156Z,15.30
2017-07-25T02:37:28.588Z,15.40
2017-07-25T02:39:56.062Z,15.40
2017-07-25T02:42:23.503Z,15.40
2017-07-25T02:44:50.959Z,15.40
2017-07-25T02:47:18.394Z,15.40
2017-07-25T02:49:46.598Z,15.40
2017-07-25T02:52:14.037Z,15.40
2017-07-25T02:54:41.466Z,15.50
2017-07-25T02:57:08.904Z,15.50
2017-07-25T02:59:36.337Z,15.40
2017-07-25T03:02:03.808Z,15.50
2017-07-25T03:04:31.236Z,15.40
2017-07-25T03:06:58.687Z,15.40
2017-07-25T03:09:32.045Z,15.50
2017-07-25T03:11:59.494Z,15.50
2017-07-25T03:14:26.920Z,15.50
2017-07-25T03:16:54.366Z,15.40
2017-07-25T03:19:21.824Z,15.40
2017-07-25T03:21:49.286Z,15.40
2017-07-25T03:24:16.723Z,15.40
2017-07-25T03:26:44.932Z,15.40
2017-07-25T03:29:12.357Z,15.40
2017-07-25T03:31:39.792Z,15.40
2017-07-25T03:34:07.220Z,15.40
2017-07-25T03:36:34.664Z,15.40
2017-07-25T03:39:02.097Z,15.40
2017-07-25T03:41:29.548Z,15.40
2017-07-25T03:43:57.744Z,15.50
2017-07-25T03:46:25.180Z,15.40
2017-07-25T03:48:52.616Z,15.50
2017-07-25T03:51:20.045Z,15.50
2017-07-25T03:53:47.491Z,15.50
2017-07-25T03:56:14.921Z,15.50
2017-07-25T03:58:42.361Z,15.50
2017-07-25T04:01:10.570Z,15.60
2017-07-25T04:03:38.021Z,15.60
2017-07-25T04:06:05.462Z,15.60
2017-07-25T04:08:32.922Z,15.60
2017-07-25T04:11:00.350Z,15.60
2017-07-25T04:13:27.793Z,15.50
2017-07-25T04:15:55.947Z,15.50
2017-07-25T04:18:36.820Z,15.50
2017-07-25T04:21:04.275Z,15.50
2017-07-25T04:23:31.957Z,15.50
2017-07-25T04:25:59.478Z,15.50
2017-07-25T04:28:26.921Z,15.50
2017-07-25T04:30:55.117Z,15.40
2017-07-25T04:33:22.561Z,15.40
2017-07-25T04:35:49.996Z,15.50
2017-07-25T04:38:17.479Z,15.50
2017-07-25T04:40:44.909Z,15.50
2017-07-25T04:43:12.341Z,15.50
2017-07-25T04:45:39.781Z,15.50
2017-07-25T04:48:07.212Z,15.50
2017-07-25T04:50:34.649Z,15.50
2017-07-25T04:53:02.852Z,15.50
2017-07-25T04:55:31.221Z,15.50
2017-07-25T04:57:58.666Z,15.50
2017-07-25T05:00:26.121Z,15.50
2017-07-25T05:02:53.561Z,15.50
2017-07-25T05:05:21.005Z,15.50
2017-07-25T05:07:48.436Z,15.60
2017-07-25T05:10:15.895Z,15.60
2017-07-25T05:12:43.324Z,15.60
2017-07-25T05:15:11.524Z,15.70
2017-07-25T05:17:38.972Z,15.70
2017-07-25T05:20:06.402Z,15.80
2017-07-25T05:22:36.945Z,15.80
2017-07-25T05:25:04.368Z,15.80
2017-07-25T05:27:31.813Z,15.80
2017-07-25T05:29:59.239Z,15.90
2017-07-25T05:32:26.699Z,15.90
2017-07-25T05:34:54.129Z,16.00
2017-07-25T05:37:22.396Z,16.00
2017-07-25T05:39:49.845Z,16.00
2017-07-25T05:42:17.325Z,16.10
2017-07-25T05:44:44.762Z,16.10
2017-07-25T05:47:12.213Z,16.20
2017-07-25T05:49:39.660Z,16.20
2017-07-25T05:52:07.113Z,16.30
2017-07-25T05:54:34.540Z,16.30
2017-07-25T05:57:01.981Z,16.40
2017-07-25T05:59:29.410Z,16.40
2017-07-25T06:01:56.868Z,16.50
2017-07-25T06:04:24.308Z,16.50
2017-07-25T06:06:51.736Z,16.50
2017-07-25T06:09:19.174Z,16.50
2017-07-25T06:11:46.613Z,16.60
2017-07-25T06:14:14.822Z,16.60
2017-07-25T06:16:42.258Z,16.60
2017-07-25T06:19:09.717Z,16.60
2017-07-25T06:21:37.135Z,16.60
2017-07-25T06:24:04.604Z,16.60
2017-07-25T06:26:32.062Z,16.60
2017-07-25T06:28:59.514Z,16.60
2017-07-25T06:31:26.951Z,16.50
2017-07-25T06:33:54.418Z,16.50
2017-07-25T06:36:21.837Z,16.40
2017-07-25T06:38:49.277Z,16.30
2017-07-25T06:41:17.490Z,16.20
2017-07-25T06:43:44.953Z,16.20
2017-07-25T06:46:12.385Z,16.10
2017-07-25T06:48:39.833Z,16.10
2017-07-25T06:51:07.272Z,15.90
2017-07-25T06:53:34.707Z,15.90
2017-07-25T06:56:02.153Z,15.80
2017-07-25T06:58:29.585Z,15.80
2017-07-25T07:00:57.029Z,15.80
2017-07-25T07:03:24.456Z,15.80
2017-07-25T07:05:51.976Z,15.80
2017-07-25T07:08:19.406Z,15.80
2017-07-25T07:10:46.854Z,15.80
2017-07-25T07:13:15.053Z,15.80
2017-07-25T07:15:42.488Z,15.80
2017-07-25T07:18:09.921Z,15.80
2017-07-25T07:20:37.369Z,15.80
2017-07-25T07:23:04.802Z,15.80
2017-07-25T07:25:32.276Z,15.80
2017-07-25T07:27:59.714Z,15.80
2017-07-25T07:30:27.184Z,15.80
2017-07-25T07:32:54.622Z,15.80
2017-07-25T07:35:22.049Z,15.90
2017-07-25T07:37:50.252Z,15.90
2017-07-25T07:40:17.676Z,15.90
2017-07-25T07:42:45.124Z,16.00
2017-07-25T07:45:12.557Z,16.00
2017-07-25T07:47:40.026Z,16.10
2017-07-25T07:50:07.481Z,16.00
2017-07-25T07:52:34.925Z,16.10
2017-07-25T07:55:02.372Z,16.10
2017-07-25T07:57:29.817Z,16.10
2017-07-25T07:59:57.304Z,16.10
2017-07-25T08:02:24.754Z,16.10
2017-07-25T08:04:52.205Z,16.20
2017-07-25T08:07:20.336Z,16.20
2017-07-25T08:09:47.765Z,16.30
2017-07-25T08:12:15.206Z,16.30
2017-07-25T08:14:42.653Z,16.30
2017-07-25T08:17:10.067Z,16.40
2017-07-25T08:19:38.268Z,16.40
2017-07-25T08:22:05.711Z,16.30
2017-07-25T08:24:33.140Z,16.40
2017-07-25T08:27:00.585Z,16.30
2017-07-25T08:29:28.037Z,16.40
2017-07-25T08:31:55.480Z,16.40
2017-07-25T08:34:22.942Z,16.40
2017-07-25T08:36:50.376Z,16.40
2017-07-25T08:39:17.808Z,16.40
2017-07-25T08:41:46.005Z,16.50
2017-07-25T08:44:13.457Z,16.50
2017-07-25T08:46:40.894Z,16.50
2017-07-25T08:49:08.340Z,16.50
2017-07-25T08:51:35.774Z,16.50
2017-07-25T08:54:03.210Z,16.60
2017-07-25T08:56:30.641Z,16.60
2017-07-25T08:58:58.093Z,16.70
2017-07-25T09:01:25.528Z,16.70
2017-07-25T09:03:52.949Z,16.70
2017-07-25T09:06:20.401Z,16.80
2017-07-25T09:08:47.864Z,16.80
2017-07-25T09:11:15.332Z,16.80
2017-07-25T09:13:42.761Z,16.80
2017-07-25T09:16:10.201Z,16.90
2017-07-25T09:18:37.637Z,16.90
2017-07-25T09:21:05.075Z,16.90
2017-07-25T09:23:50.213Z,17.00
2017-07-25T09:26:17.648Z,17.00
2017-07-25T09:28:45.093Z,17.00
2017-07-25T09:31:13.310Z,17.00
2017-07-25T09:33:40.733Z,17.00
2017-07-25T09:36:08.177Z,17.00
2017-07-25T09:38:36.492Z,16.90
2017-07-25T09:41:04.700Z,16.90
2017-07-25T09:43:32.164Z,16.90
2017-07-25T09:45:59.593Z,16.90
2017-07-25T09:48:27.060Z,17.00
2017-07-25T09:50:54.506Z,17.00
2017-07-25T09:53:21.961Z,16.90
2017-07-25T09:55:49.384Z,16.90
2017-07-25T09:58:16.910Z,16.90
2017-07-25T10:00:44.353Z,16.90
2017-07-25T10:03:11.806Z,16.90
2017-07-25T10:05:39.242Z,16.80
2017-07-25T10:08:06.697Z,16.80
2017-07-25T10:10:34.121Z,16.80
2017-07-25T10:13:01.552Z,16.80
2017-07-25T10:15:29.001Z,16.70
2017-07-25T10:17:56.956Z,16.70
2017-07-25T10:20:24.413Z,16.60
2017-07-25T10:22:51.858Z,16.50
2017-07-25T10:25:19.302Z,16.50
2017-07-25T10:27:46.735Z,16.50
2017-07-25T10:30:14.173Z,16.50
2017-07-25T10:32:41.600Z,16.50
2017-07-25T10:35:09.045Z,16.50
2017-07-25T10:37:36.477Z,16.50
2017-07-25T10:40:03.918Z,16.50
2017-07-25T10:42:31.350Z,16.50
2017-07-25T10:44:58.793Z,16.50
2017-07-25T10:47:26.229Z,16.50
2017-07-25T10:49:54.440Z,16.40
2017-07-25T10:52:21.874Z,16.40
2017-07-25T10:54:49.336Z,16.50
2017-07-25T10:57:16.769Z,16.50
2017-07-25T10:59:50.532Z,16.50
2017-07-25T11:02:17.959Z,16.60
2017-07-25T11:04:45.375Z,16.60
2017-07-25T11:07:12.812Z,16.60
2017-07-25T11:09:40.232Z,16.60
2017-07-25T11:12:07.664Z,16.60
2017-07-25T11:14:35.084Z,16.70
2017-07-25T11:17:02.508Z,16.70
2017-07-25T11:19:29.923Z,16.70
2017-07-25T11:21:57.351Z,16.70
2017-07-25T11:24:24.769Z,16.70
2017-07-25T11:26:52.213Z,16.70
2017-07-25T11:29:19.642Z,16.70
2017-07-25T11:31:47.064Z,16.70
2017-07-25T11:34:14.492Z,16.80
2017-07-25T11:36:41.907Z,16.70
2017-07-25T11:39:09.341Z,16.70
2017-07-25T11:41:36.760Z,16.70
2017-07-25T11:44:04.187Z,16.80
2017-07-25T11:46:31.598Z,16.80
2017-07-25T11:48:59.032Z,16.90
2017-07-25T11:51:27.208Z,16.90
2017-07-25T11:53:54.640Z,16.90
2017-07-25T11:56:22.063Z,16.90
2017-07-25T11:58:49.520Z,16.90
2017-07-25T12:01:16.936Z,17.00
2017-07-25T12:03:45.131Z,17.10
2017-07-25T12:06:12.543Z,17.10
2017-07-25T12:08:39.966Z,17.20
2017-07-25T12:11:07.387Z,17.20
2017-07-25T12:13:34.812Z,17.20
2017-07-25T12:16:02.236Z,17.20
2017-07-25T12:18:29.646Z,17.10
2017-07-25T12:21:08.829Z,17.10
2017-07-25T12:23:36.249Z,17.10
2017-07-25T12:26:03.672Z,17.20
2017-07-25T12:28:31.096Z,17.40
2017-07-25T12:30:58.551Z,17.40
2017-07-25T12:33:25.967Z,17.50
2017-07-25T12:35:53.390Z,17.60
2017-07-25T12:38:20.807Z,17.60
2017-07-25T12:40:48.246Z,17.70
2017-07-25T12:43:15.676Z,17.80
2017-07-25T12:45:43.873Z,17.90
2017-07-25T12:48:11.296Z,17.90
2017-07-25T12:50:38.715Z,18.00
2017-07-25T12:53:06.146Z,18.10
2017-07-25T12:55:33.564Z,18.20
2017-07-25T12:58:01.756Z,18.40
2017-07-25T13:00:50.725Z,18.30
2017-07-25T13:03:27.876Z,18.30
2017-07-25T13:05:56.056Z,18.30
2017-07-25T13:08:23.488Z,18.20
2017-07-25T13:10:50.900Z,18.30
2017-07-25T13:13:18.364Z,18.30
2017-07-25T13:15:45.775Z,18.40
2017-07-25T13:18:13.963Z,18.40
2017-07-25T13:20:41.379Z,18.40
2017-07-25T13:23:08.817Z,18.40
2017-07-25T13:25:36.236Z,18.40
2017-07-25T13:28:03.668Z,18.40
2017-07-25T13:30:31.852Z,18.40
2017-07-25T13:32:59.280Z,18.30
2017-07-25T13:35:26.700Z,18.50
2017-07-25T13:37:54.142Z,18.40
2017-07-25T13:40:21.568Z,18.30
2017-07-25T13:42:49.759Z,17.90
2017-07-25T13:45:17.204Z,17.90
2017-07-25T13:47:44.619Z,17.80
2017-07-25T13:50:12.057Z,17.80
2017-07-25T13:52:39.472Z,17.80
2017-07-25T13:55:06.903Z,17.70
2017-07-25T13:57:34.319Z,17.70
2017-07-25T14:00:01.747Z,17.70
2017-07-25T14:02:29.173Z,17.70
2017-07-25T14:04:56.591Z,17.70
2017-07-25T14:07:24.016Z,17.70
2017-07-25T14:09:51.448Z,17.70
2017-07-25T14:12:18.872Z,17.70
2017-07-25T14:14:46.303Z,17.80
2017-07-25T14:17:13.724Z,17.80
2017-07-25T14:19:41.915Z,17.90
2017-07-25T14:22:09.348Z,17.90
2017-07-25T14:24:36.783Z,17.80
2017-07-25T14:27:04.206Z,17.90
2017-07-25T14:29:31.615Z,17.90
2017-07-25T14:31:59.811Z,17.80
2017-07-25T14:34:27.225Z,17.80
2017-07-25T14:36:54.648Z,17.80
2017-07-25T14:39:22.073Z,17.90
2017-07-25T14:41:49.525Z,17.90
2017-07-25T14:44:17.684Z,17.80
2017-07-25T14:46:45.116Z,17.80
2017-07-25T14:49:12.531Z,17.80
2017-07-25T14:51:39.963Z,17.80
2017-07-25T14:54:07.380Z,17.80
2017-07-25T14:56:34.811Z,17.80
2017-07-25T14:59:02.240Z,17.80
2017-07-25T15:01:29.664Z,17.80
2017-07-25T15:03:57.079Z,17.80
2017-07-25T15:06:24.499Z,17.80
2017-07-25T15:08:51.924Z,17.70
2017-07-25T15:11:19.349Z,17.70
2017-07-25T15:13:46.772Z,17.80
2017-07-25T15:16:14.193Z,17.70
2017-07-25T15:18:42.390Z,17.60
2017-07-25T15:21:09.808Z,17.70
2017-07-25T15:23:37.239Z,17.70
2017-07-25T15:26:04.654Z,17.70
2017-07-25T15:28:32.088Z,17.70
2017-07-25T15:31:00.280Z,17.70
2017-07-25T15:33:27.708Z,17.70
2017-07-25T15:35:55.124Z,17.70
2017-07-25T15:38:22.552Z,17.70
2017-07-25T15:40:49.966Z,17.70
2017-07-25T15:43:17.419Z,17.70
2017-07-25T15:45:44.838Z,17.70
2017-07-25T15:48:12.260Z,17.70
2017-07-25T15:50:39.683Z,17.70
2017-07-25T15:53:07.116Z,17.60
2017-07-25T15:55:34.543Z,17.60
2017-07-25T15:58:01.970Z,17.50
2017-07-25T16:00:29.399Z,17.50
2017-07-25T16:02:56.816Z,17.50
2017-07-25T16:05:24.238Z,17.50
2017-07-25T16:07:52.419Z,17.40
2017-07-25T16:10:19.867Z,17.40
2017-07-25T16:12:47.290Z,17.30
2017-07-25T16:15:14.717Z,17.30
2017-07-25T16:17:42.137Z,17.30
2017-07-25T16:20:10.340Z,17.30
2017-07-25T16:22:37.788Z,17.30
2017-07-25T16:25:05.233Z,17.30
2017-07-25T16:27:32.645Z,17.30
2017-07-25T16:30:00.068Z,17.30
2017-07-25T16:32:27.524Z,17.20
2017-07-25T16:34:54.995Z,17.30
2017-07-25T16:37:22.423Z,17.30
2017-07-25T16:39:49.847Z,17.20
2017-07-25T16:42:17.284Z,17.20
2017-07-25T16:44:44.704Z,17.20
2017-07-25T16:47:12.127Z,17.20
2017-07-25T16:49:39.548Z,17.10
2017-07-25T16:52:06.980Z,17.10
2017-07-25T16:54:34.390Z,17.10
2017-07-25T16:57:01.816Z,17.10
2017-07-25T16:59:29.245Z,17.00
2017-07-25T17:01:56.692Z,17.10
2017-07-25T17:04:24.111Z,17.00
2017-07-25T17:06:52.328Z,17.00
2017-07-25T17:09:19.768Z,17.00
2017-07-25T17:11:47.179Z,17.00
2017-07-25T17:14:14.613Z,17.00
2017-07-25T17:16:42.036Z,17.00
2017-07-25T17:19:09.468Z,17.00
2017-07-25T17:21:37.924Z,16.90
2017-07-25T17:24:05.352Z,16.90
2017-07-25T17:26:32.772Z,16.90
2017-07-25T17:29:00.204Z,16.90
2017-07-25T17:31:28.397Z,16.90
2017-07-25T17:33:55.827Z,16.80
2017-07-25T17:36:23.253Z,16.80
2017-07-25T17:38:50.671Z,16.80
2017-07-25T17:41:18.899Z,16.80
2017-07-25T17:43:46.332Z,16.80
2017-07-25T17:46:13.747Z,16.80
2017-07-25T17:48:41.180Z,16.80
2017-07-25T17:51:08.595Z,16.80
2017-07-25T17:53:36.092Z,16.80
2017-07-25T17:56:03.512Z,16.80
2017-07-25T17:58:30.926Z,16.80
2017-07-25T18:00:58.356Z,16.80
2017-07-25T18:03:25.777Z,16.80
2017-07-25T18:05:53.199Z,16.80
2017-07-25T18:08:20.628Z,16.80
2017-07-25T18:10:48.059Z,16.80
2017-07-25T18:13:15.496Z,16.80
2017-07-25T18:15:42.923Z,16.80
2017-07-25T18:18:10.339Z,16.80
2017-07-25T18:20:37.781Z,16.80
2017-07-25T18:23:05.200Z,16.80
2017-07-25T18:25:32.624Z,16.80
2017-07-25T18:28:00.812Z,16.70
2017-07-25T18:30:28.235Z,16.70
2017-07-25T18:32:55.655Z,16.70
2017-07-25T18:35:23.083Z,16.70
2017-07-25T18:37:50.508Z,16.70
2017-07-25T18:40:18.040Z,16.70
2017-07-25T18:42:45.456Z,16.70
2017-07-25T18:45:12.883Z,16.60
2017-07-25T18:47:41.067Z,16.60
2017-07-25T18:50:08.516Z,16.60
2017-07-25T18:52:35.927Z,16.60
2017-07-25T18:55:03.348Z,16.60
2017-07-25T18:57:30.897Z,16.60
2017-07-25T18:59:58.308Z,16.50
2017-07-25T19:02:25.724Z,16.50
2017-07-25T19:04:53.139Z,16.50
2017-07-25T19:07:20.574Z,16.60
2017-07-25T19:09:47.996Z,16.60
2017-07-25T19:12:15.431Z,16.50
2017-07-25T19:14:42.856Z,16.50
2017-07-25T19:17:10.292Z,16.50
2017-07-25T19:19:37.819Z,16.50
2017-07-25T19:22:05.252Z,16.50
2017-07-25T19:24:32.663Z,16.50
2017-07-25T19:27:00.083Z,16.50
2017-07-25T19:29:27.503Z,16.50
2017-07-25T19:31:54.936Z,16.50
2017-07-25T19:34:22.367Z,16.50
2017-07-25T19:36:49.787Z,16.50
2017-07-25T19:39:17.209Z,16.60
2017-07-25T19:41:44.642Z,16.60
2017-07-25T19:44:12.063Z,16.50
2017-07-25T19:46:39.512Z,16.50
2017-07-25T19:49:06.936Z,16.60
2017-07-25T19:51:34.357Z,16.60
2017-07-25T19:54:01.923Z,16.50
2017-07-25T19:56:29.339Z,16.60
2017-07-25T19:58:56.776Z,16.50
2017-07-25T20:01:24.194Z,16.60
2017-07-25T20:03:51.619Z,16.50
2017-07-25T20:06:19.040Z,16.50
2017-07-25T20:08:46.463Z,16.50
2017-07-25T20:11:13.887Z,16.50
2017-07-25T20:13:41.320Z,16.40
2017-07-25T20:16:09.510Z,16.40
2017-07-25T20:18:36.949Z,16.40
2017-07-25T20:21:04.373Z,16.40
2017-07-25T20:23:31.805Z,16.40
2017-07-25T20:25:59.220Z,16.30
2017-07-25T20:28:26.647Z,16.40
2017-07-25T20:30:54.063Z,16.30
2017-07-25T20:33:21.504Z,16.20
2017-07-25T20:35:48.919Z,16.20
2017-07-25T20:38:16.367Z,16.20
2017-07-25T20:40:43.792Z,16.10
2017-07-25T20:43:11.207Z,16.00
2017-07-25T20:45:38.650Z,16.00
2017-07-25T20:48:06.060Z,16.00
2017-07-25T20:50:33.501Z,16.00
2017-07-25T20:53:00.933Z,15.90
2017-07-25T20:55:28.359Z,15.90
2017-07-25T20:57:55.786Z,15.90
2017-07-25T21:00:23.251Z,15.80
2017-07-25T21:02:50.667Z,15.80
2017-07-25T21:05:18.108Z,15.80
2017-07-25T21:07:45.524Z,15.70
2017-07-25T21:10:12.958Z,15.70
2017-07-25T21:12:40.379Z,15.70
2017-07-25T21:15:07.807Z,15.70
2017-07-25T21:17:35.227Z,15.70
2017-07-25T21:20:02.676Z,15.70
2017-07-25T21:22:30.100Z,15.70
2017-07-25T21:24:57.518Z,15.70
2017-07-25T21:27:24.951Z,15.70
2017-07-25T21:29:52.374Z,15.70
2017-07-25T21:32:19.813Z,15.60
2017-07-25T21:34:47.234Z,15.60
2017-07-25T21:37:14.665Z,15.60
2017-07-25T21:39:42.082Z,15.60
2017-07-25T21:42:09.511Z,15.60
2017-07-25T21:44:36.931Z,15.60
2017-07-25T21:47:04.363Z,15.60
2017-07-25T21:49:31.779Z,15.60
2017-07-25T21:51:59.207Z,15.60
2017-07-25T21:54:26.627Z,15.60
2017-07-25T21:56:54.067Z,15.60
2017-07-25T21:59:21.485Z,15.60
2017-07-25T22:02:00.640Z,15.60
2017-07-25T22:04:39.873Z,15.60
2017-07-25T22:07:07.296Z,15.60
2017-07-25T22:09:34.714Z,15.60
2017-07-25T22:12:02.140Z,15.60
2017-07-25T22:14:29.559Z,15.60
2017-07-25T22:16:56.980Z,15.60
2017-07-25T22:19:24.409Z,15.60
2017-07-25T22:21:51.837Z,15.70
2017-07-25T22:24:19.272Z,15.70
2017-07-25T22:26:46.695Z,15.70
2017-07-25T22:29:14.132Z,15.70
2017-07-25T22:31:42.323Z,15.70
2017-07-25T22:34:09.755Z,15.70
2017-07-25T22:36:37.176Z,15.70
2017-07-25T22:39:04.620Z,15.70
2017-07-25T22:41:32.032Z,15.70
2017-07-25T22:44:00.232Z,15.80
2017-07-25T22:46:27.647Z,15.70
2017-07-25T22:48:55.085Z,15.80
2017-07-25T22:51:22.514Z,15.70
2017-07-25T22:53:49.969Z,15.70
2017-07-25T22:56:17.388Z,15.70
2017-07-25T22:58:45.571Z,15.80
2017-07-25T23:01:13.005Z,15.70
2017-07-25T23:03:40.424Z,15.80
2017-07-25T23:06:07.861Z,15.80
2017-07-25T23:08:35.280Z,15.80
2017-07-25T23:11:03.481Z,15.80
2017-07-25T23:13:30.898Z,15.80
2017-07-25T23:15:58.331Z,15.80
2017-07-25T23:18:25.756Z,15.70
2017-07-25T23:20:53.175Z,15.80
2017-07-25T23:23:21.367Z,15.80
2017-07-25T23:25:48.791Z,15.80
2017-07-25T23:28:16.207Z,15.80
2017-07-25T23:30:43.631Z,15.70
2017-07-25T23:33:11.050Z,15.70
2017-07-25T23:35:38.488Z,15.80
2017-07-25T23:38:05.911Z,15.80
2017-07-25T23:40:33.339Z,15.70
2017-07-25T23:43:00.792Z,15.80
2017-07-25T23:45:28.212Z,15.80
2017-07-25T23:47:55.648Z,15.80
2017-07-25T23:50:23.067Z,15.80
2017-07-25T23:52:50.499Z,15.80
2017-07-25T23:55:17.919Z,15.80
2017-07-25T23:57:45.344Z,15.80
